Aérodrome :
LOGIN :

S'inscrire | Disclaimer

   EN    FR    IT 

 










Légende :    VFR   VFR Marginal   IFR   IFR Intensif   IFR Très Intensif
Visi : 
Plafond : 
>= 8 km
>= 3000ft
5 à 8 km
1000 à 3000 ft
1500m à 5 km
500 à 1000 ft
800 à 1500m
200 à 500 ft
< 800m
< 200 ft
Symboles :   Orages  Brouillard  Fortes neiges  Fortes précipitations  Vent > 20 kt
SIGMETs :   Divers  Orages  Givrage  Turbulence  Onde Orograph.  Cendres Volcan.







- Altitude de l'aérodrome : 230 ft


ETHB - Buckeburg Army

DERNIER METAR :
  • 161520Z 26011KT 9999 FEW007 FEW012CB 02/01 Q0991 RERASN BLU+BLU TEMPO YLO

METARs EXPIRÉS :
  • 161502Z 28018KT 9999 -SHRASN FEW008 SCT012CB 02/01 Q0991 RERASN BLU+BLU TEMPO YLO
  • 161450Z 27010G35KT 4000 SHRASN FEW008 BKN012CB 03/02 Q0991 GRN BLU TEMPO YLO
  • 161447Z 26008KT 4000 SHRASN FEW008 BKN012CB 03/01 Q0991 GRN BLU TEMPO YLO
  • 161420Z 26011KT 9999 FEW008 FEW015CB 02/01 Q0990 RETSGS BLU+BLU TEMPO YLO
  • 161408Z 29016G26KT 8000 -SHGSRA FEW006 SCT015CB 02/01 Q0990 RETSGS BLU+BLU TEMPO YLO
  • 161357Z 30017G30KT 2000 TSGSSN FEW010 BKN015CB 02/00 Q0990 YLO BLU TEMPO YLO
  • 161345Z 25013KT 4000 -SHRA FEW010 SCT015CB BKN022 04/02 Q0990 GRN BLU TEMPO YLO
  • 161350Z 26012KT 1300 R26/4800U +TSGS FEW010 BKN015CB 04/02 Q0990 AMB BLU TEMPO YLO
  • 161320Z 27015KT 9999 FEW012 BKN022 BKN035 04/02 Q0990 WHT BLU TEMPO YLO

TAF TAF ETHB
Valide du 16 à 15h jusqu'au 17 à 00h UTC


161422Z 1615/1624 25012G22KT 9999 NSW SCT012 BKN025
TEMPO 1615/1624 26015G28KT 2000 SHSNRA BKN007 BKN020CB
PROB30 1615/1616 28020G33KT 1500 TSSN BKN005 BKN015CB
Pas de NOTAMs connus pour ce terrain.



MET'MAP, la Météo Aéronautique d'un coup d'oeil ! - Copyright ORBIFLY Décembre 2007 - Disclaimer

ORBIFLY MET'MAP TEAM :

Programmation & Développement : Alexandra Zaïnal
Conception & Développement : Baudouin d'Aumeries
Co-Programmation & Développement : Marc-Olivier Méhu
Soutien technique & logistique : Manuel Goepfert

Contact : metmap@orbifly.com




SOURCES & CREDITS :

   NOAA